createdAt,value
2022-10-16T00:00:54.074Z,5.83
2022-10-16T00:01:56.447Z,5.87
2022-10-16T00:02:59.009Z,5.96
2022-10-16T00:04:01.617Z,5.94
2022-10-16T00:05:04.991Z,5.73
2022-10-16T00:06:08.488Z,5.74
2022-10-16T00:07:11.982Z,5.82
2022-10-16T00:08:15.455Z,5.89
2022-10-16T00:09:17.945Z,6.00
2022-10-16T00:10:21.795Z,5.94
2022-10-16T00:11:26.446Z,5.87
2022-10-16T00:12:28.665Z,5.87
2022-10-16T00:13:32.287Z,5.84
2022-10-16T00:14:34.281Z,5.91
2022-10-16T00:15:37.375Z,5.88
2022-10-16T00:16:40.558Z,5.97
2022-10-16T00:17:43.667Z,5.99
2022-10-16T00:18:45.700Z,5.96
2022-10-16T00:19:47.600Z,5.86
2022-10-16T00:20:49.504Z,5.83
2022-10-16T00:21:51.281Z,5.85
2022-10-16T00:22:53.483Z,5.86
2022-10-16T00:23:58.279Z,5.84
2022-10-16T00:25:00.393Z,5.85
2022-10-16T00:26:06.550Z,5.88
2022-10-16T00:27:08.300Z,5.88
2022-10-16T00:28:10.168Z,5.89
2022-10-16T00:29:12.062Z,5.92
2022-10-16T00:30:14.184Z,5.82
2022-10-16T00:31:17.522Z,5.84
2022-10-16T00:33:32.620Z,6.05
2022-10-16T00:34:35.034Z,5.96
2022-10-16T00:35:36.893Z,5.97
2022-10-16T00:36:39.811Z,6.01
2022-10-16T00:37:41.657Z,6.01
2022-10-16T00:38:44.190Z,6.03
2022-10-16T00:39:45.970Z,6.04
2022-10-16T00:40:48.107Z,6.07
2022-10-16T00:41:49.928Z,6.06
2022-10-16T00:42:51.792Z,6.04
2022-10-16T00:44:00.035Z,5.92
2022-10-16T00:45:03.048Z,5.88
2022-10-16T00:47:31.709Z,5.85
2022-10-16T00:48:33.910Z,5.76
2022-10-16T00:49:35.988Z,5.75
2022-10-16T00:50:38.523Z,5.73
2022-10-16T00:51:46.402Z,5.71
2022-10-16T00:52:50.254Z,5.72
2022-10-16T00:53:52.753Z,5.68
2022-10-16T00:54:55.610Z,5.66
2022-10-16T00:55:57.622Z,5.67
2022-10-16T00:57:02.426Z,5.71
2022-10-16T00:58:04.555Z,5.69
2022-10-16T00:59:10.062Z,5.54
2022-10-16T01:00:17.508Z,5.45
2022-10-16T01:01:19.517Z,5.49
2022-10-16T01:02:21.801Z,5.46
2022-10-16T01:03:27.264Z,5.50
2022-10-16T01:04:32.850Z,5.59
2022-10-16T01:05:41.626Z,5.68
2022-10-16T01:06:49.879Z,5.72
2022-10-16T01:07:58.357Z,5.75
2022-10-16T01:09:16.214Z,5.78
2022-10-16T01:10:37.126Z,5.83
2022-10-16T01:11:45.697Z,5.87
2022-10-16T01:13:03.444Z,5.89
2022-10-16T01:14:09.023Z,5.81
2022-10-16T01:15:29.989Z,5.78
2022-10-16T01:16:41.646Z,5.81
2022-10-16T01:17:47.929Z,5.84
2022-10-16T01:18:56.220Z,5.89
2022-10-16T01:20:18.500Z,5.89
2022-10-16T01:21:26.554Z,5.77
2022-10-16T01:22:32.075Z,5.82
2022-10-16T01:23:55.663Z,5.82
2022-10-16T01:25:01.825Z,5.76
2022-10-16T01:26:16.671Z,5.58
2022-10-16T01:27:32.058Z,5.54
2022-10-16T01:28:46.335Z,5.65
2022-10-16T01:30:13.426Z,5.70
2022-10-16T01:31:19.120Z,5.64
2022-10-16T01:32:41.988Z,5.66
2022-10-16T01:33:47.593Z,5.68
2022-10-16T01:35:08.406Z,5.59
2022-10-16T01:36:17.662Z,5.51
2022-10-16T01:37:23.662Z,5.60
2022-10-16T01:38:35.391Z,5.49
2022-10-16T01:39:40.335Z,5.45
2022-10-16T01:40:49.069Z,5.41
2022-10-16T01:41:54.620Z,5.30
2022-10-16T01:43:06.508Z,5.22
2022-10-16T01:44:15.633Z,5.17
2022-10-16T01:45:20.205Z,5.15
2022-10-16T01:46:24.596Z,5.09
2022-10-16T01:47:28.629Z,5.17
2022-10-16T01:48:33.236Z,5.14
2022-10-16T01:49:38.586Z,5.23
2022-10-16T01:50:44.122Z,5.27
2022-10-16T01:51:49.508Z,5.20
2022-10-16T01:52:55.018Z,5.28
2022-10-16T01:54:00.562Z,5.34
2022-10-16T01:55:07.237Z,5.39
2022-10-16T01:56:12.678Z,5.36
2022-10-16T01:57:16.436Z,5.25
2022-10-16T01:58:18.464Z,5.25
2022-10-16T01:59:23.366Z,5.21
2022-10-16T02:00:26.936Z,5.19
2022-10-16T02:01:32.045Z,5.05
2022-10-16T02:02:34.628Z,5.09
2022-10-16T02:03:40.576Z,5.21
2022-10-16T02:05:59.371Z,5.54
2022-10-16T02:07:01.604Z,5.24
2022-10-16T02:08:05.617Z,5.24
2022-10-16T02:09:07.972Z,5.22
2022-10-16T02:10:11.530Z,5.24
2022-10-16T02:11:13.349Z,5.23
2022-10-16T02:12:31.927Z,5.28
2022-10-16T02:13:46.577Z,5.31
2022-10-16T02:14:48.795Z,5.32
2022-10-16T02:15:52.335Z,5.35
2022-10-16T02:16:56.203Z,5.40
2022-10-16T02:17:57.996Z,5.41
2022-10-16T02:19:00.183Z,5.44
2022-10-16T02:20:03.830Z,5.45
2022-10-16T02:21:09.426Z,5.40
2022-10-16T02:22:17.973Z,5.31
2022-10-16T02:23:23.611Z,5.21
2022-10-16T02:24:35.691Z,5.12
2022-10-16T02:25:41.251Z,5.13
2022-10-16T02:27:04.073Z,5.12
2022-10-16T02:28:24.934Z,5.22
2022-10-16T02:29:28.138Z,5.10
2022-10-16T02:30:45.643Z,5.13
2022-10-16T02:31:51.210Z,5.13
2022-10-16T02:32:55.739Z,5.01
2022-10-16T02:34:01.586Z,4.93
2022-10-16T02:35:05.422Z,4.89
2022-10-16T02:36:08.604Z,4.88
2022-10-16T02:37:11.045Z,4.78
2022-10-16T02:38:15.468Z,4.79
2022-10-16T02:39:18.656Z,4.74
2022-10-16T02:40:24.392Z,4.70
2022-10-16T02:41:25.211Z,4.73
2022-10-16T02:42:36.661Z,4.76
2022-10-16T02:43:38.739Z,4.76
2022-10-16T02:44:40.961Z,4.84
2022-10-16T02:45:42.745Z,4.88
2022-10-16T02:46:44.645Z,4.96
2022-10-16T02:47:46.984Z,4.99
2022-10-16T02:48:48.704Z,5.00
2022-10-16T02:49:50.321Z,5.04
2022-10-16T02:50:52.282Z,5.08
2022-10-16T02:51:54.112Z,4.90
2022-10-16T02:52:56.032Z,4.92
2022-10-16T02:53:58.020Z,4.82
2022-10-16T02:54:59.863Z,4.80
2022-10-16T02:56:01.911Z,4.64
2022-10-16T02:57:03.701Z,4.64
2022-10-16T02:58:06.270Z,4.69
2022-10-16T02:59:07.946Z,4.72
2022-10-16T03:00:13.412Z,4.75
2022-10-16T03:01:15.829Z,4.68
2022-10-16T03:02:18.205Z,4.70
2022-10-16T03:03:19.887Z,4.66
2022-10-16T03:04:21.617Z,4.64
2022-10-16T03:05:23.464Z,4.67
2022-10-16T03:06:25.864Z,4.71
2022-10-16T03:07:28.480Z,4.77
2022-10-16T03:08:30.523Z,4.78
2022-10-16T03:09:32.368Z,4.80
2022-10-16T03:10:35.087Z,4.84
2022-10-16T03:11:37.116Z,4.75
2022-10-16T03:12:38.945Z,4.76
2022-10-16T03:13:40.592Z,4.73
2022-10-16T03:14:42.373Z,4.78
2022-10-16T03:15:44.392Z,4.82
2022-10-16T03:16:46.298Z,4.89
2022-10-16T03:17:48.313Z,4.91
2022-10-16T03:18:50.208Z,4.75
2022-10-16T03:19:52.256Z,4.76
2022-10-16T03:20:54.266Z,4.80
2022-10-16T03:21:56.641Z,4.85
2022-10-16T03:22:59.239Z,4.90
2022-10-16T03:24:01.358Z,4.95
2022-10-16T03:25:04.240Z,4.99
2022-10-16T03:26:06.363Z,4.94
2022-10-16T03:27:08.404Z,4.90
2022-10-16T03:28:10.187Z,4.89
2022-10-16T03:29:11.957Z,4.84
2022-10-16T03:30:14.948Z,4.73
2022-10-16T03:31:16.777Z,4.73
2022-10-16T03:32:18.488Z,4.72
2022-10-16T03:33:20.350Z,4.71
2022-10-16T03:34:22.291Z,4.61
2022-10-16T03:35:24.869Z,4.45
2022-10-16T03:36:27.024Z,4.50
2022-10-16T03:37:31.057Z,4.48
2022-10-16T03:38:32.988Z,4.40
2022-10-16T03:39:34.643Z,4.45
2022-10-16T03:40:36.365Z,4.43
2022-10-16T03:41:38.292Z,4.46
2022-10-16T03:42:40.130Z,4.46
2022-10-16T03:43:41.870Z,4.38
2022-10-16T03:44:43.600Z,4.32
2022-10-16T03:45:45.349Z,4.35
2022-10-16T03:46:47.075Z,4.35
2022-10-16T03:47:49.883Z,4.32
2022-10-16T03:48:51.736Z,4.35
2022-10-16T03:49:53.578Z,4.36
2022-10-16T03:50:55.517Z,4.32
2022-10-16T03:51:57.346Z,4.25
2022-10-16T03:52:59.526Z,4.25
2022-10-16T03:54:01.363Z,4.34
2022-10-16T03:55:03.449Z,4.36
2022-10-16T03:56:06.319Z,4.36
2022-10-16T03:57:08.993Z,4.35
2022-10-16T03:58:11.418Z,4.34
2022-10-16T03:59:13.424Z,4.34
2022-10-16T04:00:15.471Z,4.43
2022-10-16T04:01:17.222Z,4.51
2022-10-16T04:02:19.602Z,4.49
2022-10-16T04:03:22.038Z,4.45
2022-10-16T04:04:24.348Z,4.50
2022-10-16T04:05:26.273Z,4.56
2022-10-16T04:06:28.775Z,4.64
2022-10-16T04:07:31.136Z,4.70
2022-10-16T04:08:33.545Z,4.74
2022-10-16T04:09:35.806Z,4.75
2022-10-16T04:10:38.039Z,4.78
2022-10-16T04:11:41.050Z,4.80
2022-10-16T04:12:42.901Z,4.80
2022-10-16T04:13:44.562Z,4.81
2022-10-16T04:14:46.538Z,4.82
2022-10-16T04:15:48.318Z,4.85
2022-10-16T04:16:50.430Z,4.84
2022-10-16T04:17:52.701Z,4.80
2022-10-16T04:18:54.610Z,4.78
2022-10-16T04:19:56.350Z,4.78
2022-10-16T04:21:03.957Z,4.77
2022-10-16T04:22:05.834Z,4.77
2022-10-16T04:23:07.658Z,4.77
2022-10-16T04:24:09.424Z,4.78
2022-10-16T04:25:11.557Z,4.75
2022-10-16T04:26:13.366Z,4.77
2022-10-16T04:27:15.093Z,4.76
2022-10-16T04:28:16.770Z,4.80
2022-10-16T04:29:18.635Z,4.82
2022-10-16T04:30:21.736Z,4.77
2022-10-16T04:31:24.046Z,4.64
2022-10-16T04:32:26.870Z,4.70
2022-10-16T04:33:28.727Z,4.74
2022-10-16T04:34:30.626Z,4.56
2022-10-16T04:35:32.470Z,4.49
2022-10-16T04:36:34.477Z,4.54
2022-10-16T04:37:36.139Z,4.59
2022-10-16T04:38:37.989Z,4.63
2022-10-16T04:39:40.365Z,4.63
2022-10-16T04:40:43.192Z,4.61
2022-10-16T04:41:46.343Z,4.61
2022-10-16T04:42:48.160Z,4.62
2022-10-16T04:43:50.495Z,4.68
2022-10-16T04:44:52.298Z,4.66
2022-10-16T04:45:54.049Z,4.44
2022-10-16T04:46:55.862Z,4.35
2022-10-16T04:47:58.615Z,4.29
2022-10-16T04:49:00.406Z,4.39
2022-10-16T04:50:03.171Z,4.46
2022-10-16T04:51:05.402Z,4.46
2022-10-16T04:52:08.155Z,4.49
2022-10-16T04:53:10.590Z,4.51
2022-10-16T04:54:13.362Z,4.48
2022-10-16T04:55:15.304Z,4.57
2022-10-16T04:56:17.499Z,4.64
2022-10-16T04:57:19.216Z,4.70
2022-10-16T04:58:21.238Z,4.71
2022-10-16T04:59:24.419Z,4.77
2022-10-16T05:00:27.952Z,4.79
2022-10-16T05:01:29.903Z,4.89
2022-10-16T05:02:32.115Z,4.89
2022-10-16T05:03:34.798Z,4.94
2022-10-16T05:04:36.786Z,4.96
2022-10-16T05:05:43.800Z,5.04
2022-10-16T05:06:45.828Z,5.07
2022-10-16T05:07:48.252Z,5.10
2022-10-16T05:08:50.198Z,5.13
2022-10-16T05:09:52.112Z,5.11
2022-10-16T05:10:54.215Z,5.03
2022-10-16T05:11:56.290Z,5.00
2022-10-16T05:12:58.244Z,4.95
2022-10-16T05:14:00.629Z,5.01
2022-10-16T05:15:03.745Z,4.93
2022-10-16T05:16:06.666Z,4.91
2022-10-16T05:17:08.604Z,4.87
2022-10-16T05:18:10.454Z,4.82
2022-10-16T05:19:26.788Z,4.77
2022-10-16T05:20:16.869Z,4.82
2022-10-16T05:21:18.706Z,4.78
2022-10-16T05:22:21.033Z,4.80
2022-10-16T05:23:22.950Z,4.82
2022-10-16T05:24:25.716Z,4.90
2022-10-16T05:25:27.584Z,4.88
2022-10-16T05:26:29.604Z,4.89
2022-10-16T05:27:31.415Z,4.75
2022-10-16T05:28:33.524Z,4.75
2022-10-16T05:29:35.448Z,4.75
2022-10-16T05:30:38.100Z,4.73
2022-10-16T05:31:40.348Z,4.68
2022-10-16T05:32:44.303Z,4.75
2022-10-16T05:33:46.254Z,4.77
2022-10-16T05:34:48.008Z,4.78
2022-10-16T05:35:50.695Z,4.59
2022-10-16T05:36:53.129Z,4.69
2022-10-16T05:37:55.198Z,4.75
2022-10-16T05:38:57.542Z,4.77
2022-10-16T05:39:59.401Z,4.64
2022-10-16T05:41:01.477Z,4.66
2022-10-16T05:42:03.705Z,4.68
2022-10-16T05:43:06.634Z,4.68
2022-10-16T05:44:08.815Z,4.72
2022-10-16T05:45:11.731Z,4.76
2022-10-16T05:46:14.687Z,4.86
2022-10-16T05:47:16.554Z,4.86
2022-10-16T05:48:18.422Z,4.89
2022-10-16T05:49:20.274Z,4.89
2022-10-16T05:50:22.018Z,4.94
2022-10-16T05:51:23.990Z,4.91
2022-10-16T05:52:27.275Z,4.83
2022-10-16T05:53:31.098Z,4.89
2022-10-16T05:54:32.927Z,4.91
2022-10-16T05:55:34.668Z,4.94
2022-10-16T05:56:36.781Z,5.00
2022-10-16T05:57:38.947Z,4.99
2022-10-16T05:58:41.265Z,5.03
2022-10-16T05:59:44.137Z,5.07
2022-10-16T06:00:55.780Z,5.03
2022-10-16T06:01:57.910Z,5.10
2022-10-16T06:02:59.656Z,5.09
2022-10-16T06:04:02.518Z,5.15
2022-10-16T06:05:05.756Z,5.18
2022-10-16T06:06:14.059Z,5.21
2022-10-16T06:07:16.925Z,5.25
2022-10-16T06:08:21.968Z,5.27
2022-10-16T06:09:23.819Z,5.32
2022-10-16T06:10:25.569Z,5.23
2022-10-16T06:11:30.856Z,5.23
2022-10-16T06:12:32.862Z,5.23
2022-10-16T06:13:35.502Z,5.24
2022-10-16T06:14:37.368Z,5.28
2022-10-16T06:15:40.242Z,5.28
2022-10-16T06:16:42.773Z,5.25
2022-10-16T06:17:44.579Z,5.31
2022-10-16T06:18:47.219Z,5.34
2022-10-16T06:19:49.105Z,5.40
2022-10-16T06:20:51.601Z,5.51
2022-10-16T06:21:53.377Z,5.52
2022-10-16T06:22:55.171Z,5.58
2022-10-16T06:23:58.501Z,5.59
2022-10-16T06:25:00.901Z,5.68
2022-10-16T06:26:13.697Z,5.76
2022-10-16T06:27:16.109Z,5.81
2022-10-16T06:28:18.133Z,5.90
2022-10-16T06:29:20.531Z,5.98
2022-10-16T06:30:22.490Z,6.00
2022-10-16T06:31:26.004Z,6.04
2022-10-16T06:32:28.232Z,6.17
2022-10-16T06:33:30.256Z,6.17
2022-10-16T06:34:32.048Z,6.25
2022-10-16T06:35:34.212Z,6.25
2022-10-16T06:36:37.053Z,6.32
2022-10-16T06:37:39.022Z,6.28
2022-10-16T06:38:42.733Z,6.26
2022-10-16T06:39:45.098Z,6.24
2022-10-16T06:40:47.133Z,6.12
2022-10-16T06:41:49.428Z,6.04
2022-10-16T06:42:51.430Z,6.03
2022-10-16T06:43:53.289Z,6.02
2022-10-16T06:44:55.272Z,6.01
2022-10-16T06:45:58.656Z,6.01
2022-10-16T06:47:00.666Z,6.02
2022-10-16T06:48:03.793Z,6.10
2022-10-16T06:49:05.560Z,6.16
2022-10-16T06:50:08.222Z,6.26
2022-10-16T06:51:14.893Z,6.33
2022-10-16T06:52:17.096Z,6.37
2022-10-16T06:53:19.906Z,6.40
2022-10-16T06:54:21.687Z,6.44
2022-10-16T06:55:23.430Z,6.53
2022-10-16T06:56:27.564Z,6.53
2022-10-16T06:57:30.373Z,6.66
2022-10-16T06:58:32.166Z,6.73
2022-10-16T06:59:33.832Z,6.81
2022-10-16T07:00:35.568Z,6.88
2022-10-16T07:01:38.718Z,6.81
2022-10-16T07:02:40.728Z,6.87
2022-10-16T07:03:44.848Z,6.97
2022-10-16T07:04:46.795Z,6.99
2022-10-16T07:05:48.625Z,6.92
2022-10-16T07:06:50.586Z,6.88
2022-10-16T07:07:53.277Z,6.79
2022-10-16T07:08:55.169Z,6.78
2022-10-16T07:09:56.902Z,6.68
2022-10-16T07:11:02.068Z,6.63
2022-10-16T07:12:06.653Z,6.73
2022-10-16T07:13:08.548Z,6.80
2022-10-16T07:14:19.065Z,6.78
2022-10-16T07:15:20.812Z,6.76
2022-10-16T07:16:31.626Z,6.67
2022-10-16T07:17:33.487Z,6.67
2022-10-16T07:18:36.243Z,6.70
2022-10-16T07:19:38.080Z,6.74
2022-10-16T07:20:40.596Z,6.80
2022-10-16T07:21:42.992Z,6.79
2022-10-16T07:22:45.393Z,6.88
2022-10-16T07:23:56.184Z,6.98
2022-10-16T07:24:58.046Z,7.10
2022-10-16T07:26:00.281Z,7.25
2022-10-16T07:27:03.247Z,7.29
2022-10-16T07:28:06.119Z,7.30
2022-10-16T07:29:14.936Z,7.21
2022-10-16T07:30:17.572Z,7.25
2022-10-16T07:31:20.862Z,7.26
2022-10-16T07:32:22.914Z,7.30
2022-10-16T07:33:24.595Z,7.21
2022-10-16T07:34:26.455Z,7.12
2022-10-16T07:35:29.508Z,7.09
2022-10-16T07:36:32.545Z,7.11
2022-10-16T07:37:34.465Z,7.11
2022-10-16T07:38:36.521Z,7.04
2022-10-16T07:39:38.316Z,7.08
2022-10-16T07:40:41.391Z,7.13
2022-10-16T07:41:44.870Z,7.12
2022-10-16T07:42:47.681Z,7.09
2022-10-16T07:43:53.322Z,7.06
2022-10-16T07:44:55.290Z,7.08
2022-10-16T07:46:02.432Z,7.12
2022-10-16T07:47:03.789Z,7.13
2022-10-16T07:48:06.102Z,7.18
2022-10-16T07:49:10.154Z,7.18
2022-10-16T07:50:12.417Z,7.19
2022-10-16T07:51:17.838Z,7.26
2022-10-16T07:52:21.060Z,7.32
2022-10-16T07:53:26.216Z,7.37
2022-10-16T07:54:27.369Z,7.38
2022-10-16T07:55:30.154Z,7.43
2022-10-16T07:56:33.044Z,7.48
2022-10-16T07:57:35.612Z,7.48
2022-10-16T07:58:38.693Z,7.41
2022-10-16T07:59:40.583Z,7.47
2022-10-16T08:00:43.086Z,7.56
2022-10-16T08:01:47.162Z,7.62
2022-10-16T08:02:49.505Z,7.59
2022-10-16T08:03:52.731Z,7.55
2022-10-16T08:04:54.736Z,7.56
2022-10-16T08:05:58.178Z,7.64
2022-10-16T08:07:01.439Z,7.67
2022-10-16T08:08:05.409Z,7.66
2022-10-16T08:09:09.451Z,7.70
2022-10-16T08:11:27.379Z,7.90
2022-10-16T08:12:29.299Z,7.78
2022-10-16T08:13:32.257Z,7.87
2022-10-16T08:14:34.134Z,7.87
2022-10-16T08:15:36.034Z,7.93
2022-10-16T08:16:38.759Z,8.00
2022-10-16T08:17:40.461Z,8.01
2022-10-16T08:18:43.063Z,8.08
2022-10-16T08:19:47.781Z,8.10
2022-10-16T08:20:56.022Z,8.10
2022-10-16T08:21:57.868Z,8.24
2022-10-16T08:23:01.112Z,8.33
2022-10-16T08:24:03.210Z,8.49
2022-10-16T08:25:05.728Z,8.67
2022-10-16T08:26:09.297Z,8.80
2022-10-16T08:27:11.094Z,8.80
2022-10-16T08:28:12.719Z,8.98
2022-10-16T08:29:15.718Z,9.02
2022-10-16T08:30:21.553Z,9.14
2022-10-16T08:31:24.350Z,9.22
2022-10-16T08:32:27.604Z,9.28
2022-10-16T08:33:30.313Z,9.23
2022-10-16T08:34:32.248Z,9.23
2022-10-16T08:35:34.695Z,9.35
2022-10-16T08:36:38.005Z,9.42
2022-10-16T08:37:40.704Z,9.46
2022-10-16T08:38:43.139Z,9.53
2022-10-16T08:39:44.868Z,9.67
2022-10-16T08:40:51.246Z,9.73
2022-10-16T08:42:05.863Z,9.84
2022-10-16T08:43:20.324Z,9.89
2022-10-16T08:44:38.579Z,9.84
2022-10-16T08:45:47.547Z,9.83
2022-10-16T08:47:14.533Z,9.91
2022-10-16T08:48:43.039Z,9.94
2022-10-16T08:49:48.662Z,9.85
2022-10-16T08:50:54.400Z,9.84
2022-10-16T08:51:57.163Z,9.84
2022-10-16T08:52:59.713Z,9.90
2022-10-16T08:54:29.418Z,9.88
2022-10-16T08:55:41.695Z,9.92
2022-10-16T08:56:49.659Z,9.91
2022-10-16T08:57:55.060Z,9.86
2022-10-16T08:59:01.527Z,9.99
2022-10-16T09:00:09.410Z,10.11
2022-10-16T09:01:18.762Z,10.14
2022-10-16T09:02:32.930Z,10.29
2022-10-16T09:03:52.530Z,10.27
2022-10-16T09:07:01.233Z,10.19
2022-10-16T09:08:13.433Z,9.98
2022-10-16T09:09:45.760Z,9.71
2022-10-16T09:11:05.701Z,9.77
2022-10-16T09:12:41.914Z,9.87
2022-10-16T09:14:09.582Z,9.95
2022-10-16T09:15:16.360Z,9.82
2022-10-16T09:16:38.375Z,9.75
2022-10-16T09:18:15.867Z,9.77
2022-10-16T09:19:34.139Z,9.84
2022-10-16T09:22:14.259Z,9.94
2022-10-16T09:23:28.139Z,9.94
2022-10-16T09:24:37.914Z,9.95
2022-10-16T09:25:43.769Z,9.90
2022-10-16T09:26:48.294Z,9.82
2022-10-16T09:27:53.400Z,9.86
2022-10-16T09:28:56.220Z,9.98
2022-10-16T09:29:59.975Z,9.91
2022-10-16T09:31:02.221Z,10.00
2022-10-16T09:32:16.629Z,10.03
2022-10-16T09:33:25.316Z,10.11
2022-10-16T09:34:37.685Z,10.17
2022-10-16T09:35:43.633Z,10.22
2022-10-16T09:36:46.878Z,10.25
2022-10-16T09:37:52.331Z,10.23
2022-10-16T09:39:09.767Z,10.05
2022-10-16T09:40:16.173Z,10.16
2022-10-16T09:41:21.678Z,10.19
2022-10-16T09:42:29.352Z,10.24
2022-10-16T09:43:40.880Z,10.31
2022-10-16T09:44:44.718Z,10.33
2022-10-16T09:46:04.702Z,10.33
2022-10-16T09:47:10.217Z,10.28
2022-10-16T09:48:15.253Z,10.31
2022-10-16T09:49:26.594Z,10.38
2022-10-16T09:50:29.879Z,10.46
2022-10-16T09:51:34.941Z,10.43
2022-10-16T09:52:36.851Z,10.49
2022-10-16T09:53:44.816Z,10.48
2022-10-16T09:54:55.681Z,10.46
2022-10-16T09:55:58.242Z,10.44
2022-10-16T09:57:10.345Z,10.41
2022-10-16T09:58:14.210Z,10.47
2022-10-16T09:59:18.071Z,10.56
2022-10-16T10:00:23.652Z,10.61
2022-10-16T10:01:30.267Z,10.66
2022-10-16T10:02:38.123Z,10.56
2022-10-16T10:03:44.936Z,10.49
2022-10-16T10:04:55.416Z,10.51
2022-10-16T10:06:01.281Z,10.54
2022-10-16T10:07:02.277Z,10.63
2022-10-16T10:08:05.903Z,10.59
2022-10-16T10:09:30.570Z,10.65
2022-10-16T10:10:36.720Z,10.69
2022-10-16T10:11:41.854Z,10.67
2022-10-16T10:12:46.217Z,10.71
2022-10-16T10:13:49.218Z,10.68
2022-10-16T10:14:54.783Z,10.68
2022-10-16T10:15:57.798Z,10.63
2022-10-16T10:17:15.692Z,10.70
2022-10-16T10:18:24.072Z,10.77
2022-10-16T10:19:28.149Z,10.73
2022-10-16T10:20:34.657Z,10.79
2022-10-16T10:21:39.477Z,10.83
2022-10-16T10:22:45.896Z,10.91
2022-10-16T10:23:56.266Z,10.98
2022-10-16T10:25:11.033Z,11.16
2022-10-16T10:26:17.757Z,11.26
2022-10-16T10:27:21.410Z,11.22
2022-10-16T10:28:55.148Z,11.31
2022-10-16T10:30:03.773Z,11.41
2022-10-16T10:31:28.227Z,11.56
2022-10-16T10:32:52.724Z,11.63
2022-10-16T10:34:10.487Z,11.56
2022-10-16T10:35:25.719Z,11.75
2022-10-16T10:36:34.839Z,11.81
2022-10-16T10:37:55.619Z,11.91
2022-10-16T10:39:04.215Z,11.96
2022-10-16T10:40:29.587Z,12.00
2022-10-16T10:41:55.076Z,12.09
2022-10-16T10:43:01.198Z,12.05
2022-10-16T10:44:41.478Z,12.18
2022-10-16T10:45:46.894Z,12.13
2022-10-16T10:46:58.152Z,12.25
2022-10-16T10:48:32.883Z,12.22
2022-10-16T10:49:55.060Z,12.26
2022-10-16T10:51:23.452Z,12.30
2022-10-16T10:52:37.725Z,12.33
2022-10-16T10:53:48.975Z,12.38
2022-10-16T10:55:12.763Z,12.39
2022-10-16T10:56:18.531Z,12.41
2022-10-16T10:58:59.575Z,12.40
2022-10-16T11:00:39.998Z,12.38
2022-10-16T11:01:58.056Z,12.44
2022-10-16T11:03:25.414Z,12.46
2022-10-16T11:04:42.901Z,12.53
2022-10-16T11:06:00.844Z,12.47
2022-10-16T11:07:06.435Z,12.37
2022-10-16T11:08:15.209Z,12.40
2022-10-16T11:09:21.057Z,12.47
2022-10-16T11:10:26.637Z,12.40
2022-10-16T11:11:49.028Z,12.44
2022-10-16T11:12:58.424Z,12.48
2022-10-16T11:14:19.441Z,12.53
2022-10-16T11:15:31.622Z,12.62
2022-10-16T11:16:37.764Z,12.63
2022-10-16T11:17:43.330Z,12.68
2022-10-16T11:19:14.704Z,12.69
2022-10-16T11:21:59.018Z,12.88
2022-10-16T11:23:37.877Z,12.94
2022-10-16T11:24:55.983Z,13.00
2022-10-16T11:26:02.756Z,12.99
2022-10-16T11:27:09.546Z,12.87
2022-10-16T11:28:21.075Z,12.94
2022-10-16T11:30:58.427Z,13.04
2022-10-16T11:33:27.256Z,13.05
2022-10-16T11:34:42.012Z,12.94
2022-10-16T11:36:13.644Z,13.09
2022-10-16T11:37:22.128Z,13.19
2022-10-16T11:38:39.156Z,13.26
2022-10-16T11:39:44.486Z,13.31
2022-10-16T11:40:49.051Z,13.44
2022-10-16T11:41:58.708Z,13.43
2022-10-16T11:43:19.713Z,13.50
2022-10-16T11:44:54.924Z,13.64
2022-10-16T11:46:00.513Z,13.66
2022-10-16T11:47:33.965Z,13.81
2022-10-16T11:48:33.693Z,13.98
2022-10-16T11:49:38.595Z,13.80
2022-10-16T11:50:56.593Z,13.80
2022-10-16T11:52:28.232Z,13.87
2022-10-16T11:53:49.097Z,14.00
2022-10-16T11:55:02.797Z,14.09
2022-10-16T11:56:06.055Z,14.14
2022-10-16T11:57:14.972Z,14.16
2022-10-16T11:58:35.631Z,14.26
2022-10-16T11:59:50.499Z,14.38
2022-10-16T12:01:12.264Z,14.47
2022-10-16T12:02:35.183Z,14.64
2022-10-16T12:03:44.902Z,14.75
2022-10-16T12:04:50.579Z,14.72
2022-10-16T12:06:01.908Z,14.79
2022-10-16T12:07:11.575Z,14.81
2022-10-16T12:08:16.689Z,14.95
2022-10-16T12:09:23.800Z,15.01
2022-10-16T12:10:29.135Z,14.95
2022-10-16T12:11:39.902Z,14.99
2022-10-16T12:12:41.732Z,14.99
2022-10-16T12:13:45.126Z,15.10
2022-10-16T12:15:11.182Z,15.14
2022-10-16T12:15:59.258Z,15.14
2022-10-16T12:16:57.827Z,15.15
2022-10-16T12:18:01.235Z,15.25
2022-10-16T12:19:16.306Z,15.23
2022-10-16T12:20:22.305Z,15.20
2022-10-16T12:21:27.774Z,15.22
2022-10-16T12:22:32.192Z,15.31
2022-10-16T12:23:41.712Z,15.38
2022-10-16T12:24:44.396Z,15.45
2022-10-16T12:25:50.411Z,15.41
2022-10-16T12:26:53.744Z,15.50
2022-10-16T12:28:16.938Z,15.61
2022-10-16T12:29:25.467Z,15.58
2022-10-16T12:30:35.009Z,15.73
2022-10-16T12:31:49.670Z,15.68
2022-10-16T12:32:49.582Z,15.78
2022-10-16T12:34:01.611Z,15.90
2022-10-16T12:35:07.350Z,15.97
2022-10-16T12:37:35.429Z,16.15
2022-10-16T12:38:41.959Z,16.05
2022-10-16T12:39:44.084Z,16.22
2022-10-16T12:40:49.539Z,16.03
2022-10-16T12:42:03.116Z,16.00
2022-10-16T12:43:28.890Z,16.09
2022-10-16T12:44:34.978Z,16.20
2022-10-16T12:45:36.847Z,16.06
2022-10-16T12:46:40.264Z,16.17
2022-10-16T12:47:51.441Z,16.26
2022-10-16T12:49:08.655Z,16.29
2022-10-16T12:50:00.433Z,16.18
2022-10-16T12:51:31.918Z,16.20
2022-10-16T12:52:39.647Z,15.90
2022-10-16T12:53:41.579Z,15.81
2022-10-16T12:54:43.927Z,15.92
2022-10-16T12:56:17.794Z,15.96
2022-10-16T12:57:35.553Z,16.09
2022-10-16T12:58:49.444Z,16.24
2022-10-16T13:00:20.937Z,16.28
2022-10-16T13:01:29.790Z,16.26
2022-10-16T13:02:41.140Z,16.28
2022-10-16T13:04:02.958Z,16.20
2022-10-16T13:05:29.840Z,16.27
2022-10-16T13:08:07.163Z,16.50
2022-10-16T13:09:15.523Z,16.39
2022-10-16T13:10:33.405Z,16.42
2022-10-16T13:12:00.499Z,16.47
2022-10-16T13:13:41.489Z,16.45
2022-10-16T13:14:59.249Z,16.31
2022-10-16T13:16:08.262Z,16.28
2022-10-16T13:17:26.629Z,16.39
2022-10-16T13:18:50.967Z,16.50
2022-10-16T13:20:00.041Z,16.58
2022-10-16T13:21:33.648Z,16.53
2022-10-16T13:22:45.782Z,16.59
2022-10-16T13:24:03.430Z,16.63
2022-10-16T13:25:24.784Z,16.63
2022-10-16T13:26:42.211Z,16.62
2022-10-16T13:27:59.011Z,16.69
2022-10-16T13:29:02.573Z,16.69
2022-10-16T13:30:20.749Z,16.66
2022-10-16T13:31:26.338Z,16.69
2022-10-16T13:32:29.685Z,16.71
2022-10-16T13:33:40.482Z,16.75
2022-10-16T13:34:45.936Z,16.77
2022-10-16T13:35:56.852Z,16.83
2022-10-16T13:36:59.373Z,16.78
2022-10-16T13:39:29.973Z,16.68
2022-10-16T13:40:32.876Z,16.63
2022-10-16T13:41:34.777Z,16.61
2022-10-16T13:42:36.641Z,16.64
2022-10-16T13:43:42.617Z,16.63
2022-10-16T13:44:48.151Z,16.63
2022-10-16T13:46:03.057Z,16.57
2022-10-16T13:47:06.249Z,16.60
2022-10-16T13:48:10.490Z,16.57
2022-10-16T13:49:18.668Z,16.61
2022-10-16T13:50:21.420Z,16.59
2022-10-16T13:52:25.911Z,16.49
2022-10-16T13:53:34.641Z,16.40
2022-10-16T13:54:36.960Z,16.39
2022-10-16T13:55:40.089Z,16.42
2022-10-16T13:56:42.090Z,16.45
2022-10-16T13:57:44.559Z,16.54
2022-10-16T13:58:46.831Z,16.37
2022-10-16T13:59:49.082Z,16.09
2022-10-16T14:00:56.334Z,16.21
2022-10-16T14:02:01.824Z,16.29
2022-10-16T14:03:15.839Z,16.35
2022-10-16T14:04:18.616Z,16.26
2022-10-16T14:05:22.135Z,16.15
2022-10-16T14:06:25.095Z,16.08
2022-10-16T14:07:30.395Z,16.13
2022-10-16T14:08:34.216Z,16.06
2022-10-16T14:09:37.858Z,15.96
2022-10-16T14:10:41.310Z,15.85
2022-10-16T14:11:53.145Z,15.78
2022-10-16T14:12:58.105Z,15.81
2022-10-16T14:14:00.874Z,15.84
2022-10-16T14:15:04.798Z,15.80
2022-10-16T14:16:10.223Z,15.61
2022-10-16T14:17:30.005Z,15.69
2022-10-16T14:18:33.578Z,15.68
2022-10-16T14:19:36.130Z,15.61
2022-10-16T14:20:38.324Z,15.61
2022-10-16T14:21:42.471Z,15.60
2022-10-16T14:22:44.785Z,15.63
2022-10-16T14:23:46.901Z,15.64
2022-10-16T14:24:48.871Z,15.59
2022-10-16T14:25:51.359Z,15.61
2022-10-16T14:26:53.902Z,15.60
2022-10-16T14:29:17.804Z,15.29
2022-10-16T14:30:22.245Z,15.09
2022-10-16T14:31:28.274Z,15.01
2022-10-16T14:32:30.195Z,15.04
2022-10-16T14:33:34.203Z,15.01
2022-10-16T14:34:39.566Z,15.01
2022-10-16T14:35:41.540Z,14.94
2022-10-16T14:36:45.995Z,14.88
2022-10-16T14:37:54.868Z,14.77
2022-10-16T14:39:03.951Z,14.67
2022-10-16T14:40:10.852Z,14.56
2022-10-16T14:41:13.865Z,14.34
2022-10-16T14:42:18.775Z,14.16
2022-10-16T14:43:24.799Z,13.98
2022-10-16T14:44:30.419Z,13.85
2022-10-16T14:45:35.477Z,13.60
2022-10-16T14:46:39.947Z,13.38
2022-10-16T14:47:52.233Z,13.29
2022-10-16T14:49:07.992Z,13.14
2022-10-16T14:50:11.054Z,13.02
2022-10-16T14:51:15.796Z,12.76
2022-10-16T14:52:19.731Z,12.45
2022-10-16T14:53:22.672Z,12.28
2022-10-16T14:54:24.622Z,12.10
2022-10-16T14:55:26.720Z,12.08